sensor_id;sensor_type;location;lat;lon;timestamp;temperature;humidity
37594;DHT22;23441;50.856;6.076;2024-01-11T00:01:18;-5.90;99.90
37594;DHT22;23441;50.856;6.076;2024-01-11T00:04:04;-6.00;99.90
37594;DHT22;23441;50.856;6.076;2024-01-11T00:06:50;-6.10;99.90
37594;DHT22;23441;50.856;6.076;2024-01-11T00:09:40;-6.10;99.90
37594;DHT22;23441;50.856;6.076;2024-01-11T00:12:26;-6.10;99.90
37594;DHT22;23441;50.856;6.076;2024-01-11T00:15:13;-6.10;99.90
37594;DHT22;23441;50.856;6.076;2024-01-11T00:17:59;-6.20;99.90
37594;DHT22;23441;50.856;6.076;2024-01-11T00:20:45;-6.20;99.90
37594;DHT22;23441;50.856;6.076;2024-01-11T00:23:30;-6.20;99.90
37594;DHT22;23441;50.856;6.076;2024-01-11T00:26:16;-6.20;99.90
37594;DHT22;23441;50.856;6.076;2024-01-11T00:29:02;-6.20;99.90
37594;DHT22;23441;50.856;6.076;2024-01-11T00:31:48;-6.20;99.90
37594;DHT22;23441;50.856;6.076;2024-01-11T00:34:34;-6.20;99.90
37594;DHT22;23441;50.856;6.076;2024-01-11T00:37:21;-6.20;99.90
37594;DHT22;23441;50.856;6.076;2024-01-11T00:40:08;-6.20;99.90
37594;DHT22;23441;50.856;6.076;2024-01-11T00:42:54;-6.30;99.90
37594;DHT22;23441;50.856;6.076;2024-01-11T00:45:40;-6.30;99.90
37594;DHT22;23441;50.856;6.076;2024-01-11T00:48:26;-6.30;99.90
37594;DHT22;23441;50.856;6.076;2024-01-11T00:51:12;-6.40;99.90
37594;DHT22;23441;50.856;6.076;2024-01-11T00:53:58;-6.40;99.90
37594;DHT22;23441;50.856;6.076;2024-01-11T00:56:44;-6.40;99.90
37594;DHT22;23441;50.856;6.076;2024-01-11T00:59:30;-6.40;99.90
37594;DHT22;23441;50.856;6.076;2024-01-11T01:02:16;-6.40;99.90
37594;DHT22;23441;50.856;6.076;2024-01-11T01:05:02;-6.30;99.90
37594;DHT22;23441;50.856;6.076;2024-01-11T01:07:48;-6.40;99.90
37594;DHT22;23441;50.856;6.076;2024-01-11T01:10:34;-6.40;99.90
37594;DHT22;23441;50.856;6.076;2024-01-11T01:13:20;-6.40;99.90
37594;DHT22;23441;50.856;6.076;2024-01-11T01:16:06;-6.40;99.90
37594;DHT22;23441;50.856;6.076;2024-01-11T01:18:52;-6.40;99.90
37594;DHT22;23441;50.856;6.076;2024-01-11T01:21:38;-6.50;99.90
37594;DHT22;23441;50.856;6.076;2024-01-11T01:24:24;-6.40;99.90
37594;DHT22;23441;50.856;6.076;2024-01-11T01:27:10;-6.50;99.90
37594;DHT22;23441;50.856;6.076;2024-01-11T01:29:56;-6.50;99.90
37594;DHT22;23441;50.856;6.076;2024-01-11T01:32:42;-6.40;99.90
37594;DHT22;23441;50.856;6.076;2024-01-11T01:35:28;-6.50;99.90
37594;DHT22;23441;50.856;6.076;2024-01-11T01:38:14;-6.40;99.90
37594;DHT22;23441;50.856;6.076;2024-01-11T01:41:00;-6.40;99.90
37594;DHT22;23441;50.856;6.076;2024-01-11T01:43:45;-6.40;99.90
37594;DHT22;23441;50.856;6.076;2024-01-11T01:46:31;-6.40;99.90
37594;DHT22;23441;50.856;6.076;2024-01-11T01:49:18;-6.40;99.90
37594;DHT22;23441;50.856;6.076;2024-01-11T01:52:08;-6.30;99.90
37594;DHT22;23441;50.856;6.076;2024-01-11T01:54:54;-6.40;99.90
37594;DHT22;23441;50.856;6.076;2024-01-11T01:57:42;-6.30;99.90
37594;DHT22;23441;50.856;6.076;2024-01-11T02:00:29;-6.30;99.90
37594;DHT22;23441;50.856;6.076;2024-01-11T02:03:15;-6.30;99.90
37594;DHT22;23441;50.856;6.076;2024-01-11T02:06:03;-6.30;99.90
37594;DHT22;23441;50.856;6.076;2024-01-11T02:08:52;-6.20;99.90
37594;DHT22;23441;50.856;6.076;2024-01-11T02:11:44;-6.20;99.90
37594;DHT22;23441;50.856;6.076;2024-01-11T02:14:30;-6.20;99.90
37594;DHT22;23441;50.856;6.076;2024-01-11T02:17:16;-6.20;99.90
37594;DHT22;23441;50.856;6.076;2024-01-11T02:20:03;-6.20;99.90
37594;DHT22;23441;50.856;6.076;2024-01-11T02:22:53;-6.20;99.90
37594;DHT22;23441;50.856;6.076;2024-01-11T02:25:41;-6.20;99.90
37594;DHT22;23441;50.856;6.076;2024-01-11T02:28:27;-6.30;99.90
37594;DHT22;23441;50.856;6.076;2024-01-11T02:31:13;-6.30;99.90
37594;DHT22;23441;50.856;6.076;2024-01-11T02:34:00;-6.30;99.90
37594;DHT22;23441;50.856;6.076;2024-01-11T02:36:46;-6.20;99.90
37594;DHT22;23441;50.856;6.076;2024-01-11T02:39:32;-6.20;99.90
37594;DHT22;23441;50.856;6.076;2024-01-11T02:42:18;-6.30;99.90
37594;DHT22;23441;50.856;6.076;2024-01-11T02:45:05;-6.30;99.90
37594;DHT22;23441;50.856;6.076;2024-01-11T02:47:51;-6.30;99.90
37594;DHT22;23441;50.856;6.076;2024-01-11T02:50:37;-6.20;99.90
37594;DHT22;23441;50.856;6.076;2024-01-11T02:53:23;-6.20;99.90
37594;DHT22;23441;50.856;6.076;2024-01-11T02:56:09;-6.20;99.90
37594;DHT22;23441;50.856;6.076;2024-01-11T02:58:55;-6.20;99.90
37594;DHT22;23441;50.856;6.076;2024-01-11T03:01:41;-6.20;99.90
37594;DHT22;23441;50.856;6.076;2024-01-11T03:04:27;-6.20;99.90
37594;DHT22;23441;50.856;6.076;2024-01-11T03:07:13;-6.20;99.90
37594;DHT22;23441;50.856;6.076;2024-01-11T03:09:59;-6.20;99.90
37594;DHT22;23441;50.856;6.076;2024-01-11T03:12:45;-6.20;99.90
37594;DHT22;23441;50.856;6.076;2024-01-11T03:15:31;-6.20;99.90
37594;DHT22;23441;50.856;6.076;2024-01-11T03:18:17;-6.30;99.90
37594;DHT22;23441;50.856;6.076;2024-01-11T03:21:03;-6.10;99.90
37594;DHT22;23441;50.856;6.076;2024-01-11T03:23:49;-6.10;99.90
37594;DHT22;23441;50.856;6.076;2024-01-11T03:26:35;-6.20;99.90
37594;DHT22;23441;50.856;6.076;2024-01-11T03:29:21;-6.30;99.90
37594;DHT22;23441;50.856;6.076;2024-01-11T03:32:07;-6.30;99.90
37594;DHT22;23441;50.856;6.076;2024-01-11T03:34:53;-6.30;99.90
37594;DHT22;23441;50.856;6.076;2024-01-11T03:37:39;-6.40;99.90
37594;DHT22;23441;50.856;6.076;2024-01-11T03:40:25;-6.40;99.90
37594;DHT22;23441;50.856;6.076;2024-01-11T03:43:10;-6.40;99.90
37594;DHT22;23441;50.856;6.076;2024-01-11T03:45:56;-6.40;99.90
37594;DHT22;23441;50.856;6.076;2024-01-11T03:48:42;-6.40;99.90
37594;DHT22;23441;50.856;6.076;2024-01-11T03:51:28;-6.40;99.90
37594;DHT22;23441;50.856;6.076;2024-01-11T03:54:14;-6.40;99.90
37594;DHT22;23441;50.856;6.076;2024-01-11T03:57:00;-6.30;99.90
37594;DHT22;23441;50.856;6.076;2024-01-11T03:59:46;-6.30;99.90
37594;DHT22;23441;50.856;6.076;2024-01-11T04:02:32;-6.30;99.90
37594;DHT22;23441;50.856;6.076;2024-01-11T04:05:18;-6.30;99.90
37594;DHT22;23441;50.856;6.076;2024-01-11T04:08:07;-6.30;99.90
37594;DHT22;23441;50.856;6.076;2024-01-11T04:10:53;-6.40;99.90
37594;DHT22;23441;50.856;6.076;2024-01-11T04:13:39;-6.40;99.90
37594;DHT22;23441;50.856;6.076;2024-01-11T04:16:25;-6.40;99.90
37594;DHT22;23441;50.856;6.076;2024-01-11T04:19:11;-6.40;99.90
37594;DHT22;23441;50.856;6.076;2024-01-11T04:21:57;-6.50;99.90
37594;DHT22;23441;50.856;6.076;2024-01-11T04:24:43;-6.40;99.90
37594;DHT22;23441;50.856;6.076;2024-01-11T04:27:29;-6.40;99.90
37594;DHT22;23441;50.856;6.076;2024-01-11T04:30:15;-6.30;99.90
37594;DHT22;23441;50.856;6.076;2024-01-11T04:33:01;-6.30;99.90
37594;DHT22;23441;50.856;6.076;2024-01-11T04:35:47;-6.30;99.90
37594;DHT22;23441;50.856;6.076;2024-01-11T04:38:33;-6.30;99.90
37594;DHT22;23441;50.856;6.076;2024-01-11T04:41:19;-6.40;99.90
37594;DHT22;23441;50.856;6.076;2024-01-11T04:44:05;-6.30;99.90
37594;DHT22;23441;50.856;6.076;2024-01-11T04:46:51;-6.20;99.90
37594;DHT22;23441;50.856;6.076;2024-01-11T04:49:37;-6.10;99.90
37594;DHT22;23441;50.856;6.076;2024-01-11T04:52:23;-6.10;99.90
37594;DHT22;23441;50.856;6.076;2024-01-11T04:55:09;-6.00;99.90
37594;DHT22;23441;50.856;6.076;2024-01-11T04:57:55;-6.00;99.90
37594;DHT22;23441;50.856;6.076;2024-01-11T05:00:40;-6.00;99.90
37594;DHT22;23441;50.856;6.076;2024-01-11T05:03:27;-6.00;99.90
37594;DHT22;23441;50.856;6.076;2024-01-11T05:06:18;-6.00;99.90
37594;DHT22;23441;50.856;6.076;2024-01-11T05:09:04;-6.10;99.90
37594;DHT22;23441;50.856;6.076;2024-01-11T05:11:50;-6.00;99.90
37594;DHT22;23441;50.856;6.076;2024-01-11T05:14:36;-6.10;99.90
37594;DHT22;23441;50.856;6.076;2024-01-11T05:17:22;-6.10;99.90
37594;DHT22;23441;50.856;6.076;2024-01-11T05:20:08;-6.10;99.90
37594;DHT22;23441;50.856;6.076;2024-01-11T05:22:54;-6.20;99.90
37594;DHT22;23441;50.856;6.076;2024-01-11T05:25:40;-6.20;99.90
37594;DHT22;23441;50.856;6.076;2024-01-11T05:28:26;-6.20;99.90
37594;DHT22;23441;50.856;6.076;2024-01-11T05:31:13;-6.20;99.90
37594;DHT22;23441;50.856;6.076;2024-01-11T05:34:00;-6.20;99.90
37594;DHT22;23441;50.856;6.076;2024-01-11T05:36:46;-6.20;99.90
37594;DHT22;23441;50.856;6.076;2024-01-11T05:39:32;-6.20;99.90
37594;DHT22;23441;50.856;6.076;2024-01-11T05:42:18;-6.20;99.90
37594;DHT22;23441;50.856;6.076;2024-01-11T05:45:05;-6.10;99.90
37594;DHT22;23441;50.856;6.076;2024-01-11T05:47:51;-6.30;99.90
37594;DHT22;23441;50.856;6.076;2024-01-11T05:50:37;-6.20;99.90
37594;DHT22;23441;50.856;6.076;2024-01-11T05:53:23;-6.30;99.90
37594;DHT22;23441;50.856;6.076;2024-01-11T05:56:10;-6.40;99.90
37594;DHT22;23441;50.856;6.076;2024-01-11T05:58:56;-6.40;99.90
37594;DHT22;23441;50.856;6.076;2024-01-11T06:01:42;-6.40;99.90
37594;DHT22;23441;50.856;6.076;2024-01-11T06:04:28;-6.40;99.90
37594;DHT22;23441;50.856;6.076;2024-01-11T06:07:15;-6.50;99.90
37594;DHT22;23441;50.856;6.076;2024-01-11T06:10:01;-6.50;99.90
37594;DHT22;23441;50.856;6.076;2024-01-11T06:12:48;-6.50;99.90
37594;DHT22;23441;50.856;6.076;2024-01-11T06:15:34;-6.50;99.90
37594;DHT22;23441;50.856;6.076;2024-01-11T06:18:20;-6.50;99.90
37594;DHT22;23441;50.856;6.076;2024-01-11T06:21:06;-6.60;99.90
37594;DHT22;23441;50.856;6.076;2024-01-11T06:23:52;-6.70;99.90
37594;DHT22;23441;50.856;6.076;2024-01-11T06:26:38;-6.70;99.90
37594;DHT22;23441;50.856;6.076;2024-01-11T06:29:24;-6.70;99.90
37594;DHT22;23441;50.856;6.076;2024-01-11T06:32:10;-6.80;99.90
37594;DHT22;23441;50.856;6.076;2024-01-11T06:34:56;-6.90;99.90
37594;DHT22;23441;50.856;6.076;2024-01-11T06:37:42;-6.70;99.90
37594;DHT22;23441;50.856;6.076;2024-01-11T06:40:27;-6.70;99.90
37594;DHT22;23441;50.856;6.076;2024-01-11T06:43:13;-6.70;99.90
37594;DHT22;23441;50.856;6.076;2024-01-11T06:46:06;-6.70;99.90
37594;DHT22;23441;50.856;6.076;2024-01-11T06:48:52;-6.80;99.90
37594;DHT22;23441;50.856;6.076;2024-01-11T06:51:38;-7.00;99.90
37594;DHT22;23441;50.856;6.076;2024-01-11T06:54:24;-7.00;99.90
37594;DHT22;23441;50.856;6.076;2024-01-11T06:57:11;-7.00;99.90
37594;DHT22;23441;50.856;6.076;2024-01-11T06:59:57;-7.10;99.90
37594;DHT22;23441;50.856;6.076;2024-01-11T07:02:43;-7.10;99.90
37594;DHT22;23441;50.856;6.076;2024-01-11T07:05:29;-7.00;99.90
37594;DHT22;23441;50.856;6.076;2024-01-11T07:08:15;-7.00;99.90
37594;DHT22;23441;50.856;6.076;2024-01-11T07:11:01;-7.00;99.90
37594;DHT22;23441;50.856;6.076;2024-01-11T07:13:49;-7.00;99.90
37594;DHT22;23441;50.856;6.076;2024-01-11T07:16:36;-7.00;99.90
37594;DHT22;23441;50.856;6.076;2024-01-11T07:19:22;-7.10;99.90
37594;DHT22;23441;50.856;6.076;2024-01-11T07:22:07;-7.00;99.90
37594;DHT22;23441;50.856;6.076;2024-01-11T07:24:53;-7.10;99.90
37594;DHT22;23441;50.856;6.076;2024-01-11T07:27:39;-7.20;99.90
37594;DHT22;23441;50.856;6.076;2024-01-11T07:30:25;-7.10;99.90
37594;DHT22;23441;50.856;6.076;2024-01-11T07:33:11;-7.00;99.90
37594;DHT22;23441;50.856;6.076;2024-01-11T07:35:57;-7.10;99.90
37594;DHT22;23441;50.856;6.076;2024-01-11T07:38:44;-7.20;99.90
37594;DHT22;23441;50.856;6.076;2024-01-11T07:41:30;-7.20;99.90
37594;DHT22;23441;50.856;6.076;2024-01-11T07:44:16;-7.20;99.90
37594;DHT22;23441;50.856;6.076;2024-01-11T07:47:02;-7.00;99.90
37594;DHT22;23441;50.856;6.076;2024-01-11T07:49:48;-7.20;99.90
37594;DHT22;23441;50.856;6.076;2024-01-11T07:52:34;-7.20;99.90
37594;DHT22;23441;50.856;6.076;2024-01-11T07:55:20;-7.10;99.90
37594;DHT22;23441;50.856;6.076;2024-01-11T07:58:09;-7.20;99.90
37594;DHT22;23441;50.856;6.076;2024-01-11T08:00:57;-7.20;99.90
37594;DHT22;23441;50.856;6.076;2024-01-11T08:03:43;-7.20;99.90
37594;DHT22;23441;50.856;6.076;2024-01-11T08:06:32;-7.20;99.90
37594;DHT22;23441;50.856;6.076;2024-01-11T08:09:19;-7.20;99.90
37594;DHT22;23441;50.856;6.076;2024-01-11T08:12:05;-7.10;99.90
37594;DHT22;23441;50.856;6.076;2024-01-11T08:14:51;-7.00;99.90
37594;DHT22;23441;50.856;6.076;2024-01-11T08:17:44;-6.90;99.90
37594;DHT22;23441;50.856;6.076;2024-01-11T08:20:30;-7.00;99.90
37594;DHT22;23441;50.856;6.076;2024-01-11T08:23:16;-6.90;99.90
37594;DHT22;23441;50.856;6.076;2024-01-11T08:26:02;-6.80;99.90
37594;DHT22;23441;50.856;6.076;2024-01-11T08:28:49;-6.70;99.90
37594;DHT22;23441;50.856;6.076;2024-01-11T08:31:35;-6.60;99.90
37594;DHT22;23441;50.856;6.076;2024-01-11T08:34:21;-6.60;99.90
37594;DHT22;23441;50.856;6.076;2024-01-11T08:37:07;-6.50;99.90
37594;DHT22;23441;50.856;6.076;2024-01-11T08:39:53;-6.50;99.90
37594;DHT22;23441;50.856;6.076;2024-01-11T08:42:39;-6.40;99.90
37594;DHT22;23441;50.856;6.076;2024-01-11T08:45:25;-6.40;99.90
37594;DHT22;23441;50.856;6.076;2024-01-11T08:48:11;-6.30;99.90
37594;DHT22;23441;50.856;6.076;2024-01-11T08:50:57;-6.30;99.90
37594;DHT22;23441;50.856;6.076;2024-01-11T08:53:43;-6.20;99.90
37594;DHT22;23441;50.856;6.076;2024-01-11T08:56:29;-6.10;99.90
37594;DHT22;23441;50.856;6.076;2024-01-11T08:59:15;-6.10;99.90
37594;DHT22;23441;50.856;6.076;2024-01-11T09:02:01;-6.10;99.90
37594;DHT22;23441;50.856;6.076;2024-01-11T09:04:47;-6.10;99.90
37594;DHT22;23441;50.856;6.076;2024-01-11T09:07:33;-6.00;99.90
37594;DHT22;23441;50.856;6.076;2024-01-11T09:10:19;-6.00;99.90
37594;DHT22;23441;50.856;6.076;2024-01-11T09:13:05;-6.00;99.90
37594;DHT22;23441;50.856;6.076;2024-01-11T09:15:51;-5.80;99.90
37594;DHT22;23441;50.856;6.076;2024-01-11T09:18:37;-5.80;99.90
37594;DHT22;23441;50.856;6.076;2024-01-11T09:21:23;-5.80;99.90
37594;DHT22;23441;50.856;6.076;2024-01-11T09:24:09;-5.70;99.90
37594;DHT22;23441;50.856;6.076;2024-01-11T09:26:55;-5.60;99.90
37594;DHT22;23441;50.856;6.076;2024-01-11T09:29:44;-5.60;99.90
37594;DHT22;23441;50.856;6.076;2024-01-11T09:32:30;-5.40;99.90
37594;DHT22;23441;50.856;6.076;2024-01-11T09:35:17;-5.30;99.90
37594;DHT22;23441;50.856;6.076;2024-01-11T09:38:03;-5.30;99.90
37594;DHT22;23441;50.856;6.076;2024-01-11T09:41:15;-5.20;99.90
37594;DHT22;23441;50.856;6.076;2024-01-11T09:44:04;-5.10;99.90
37594;DHT22;23441;50.856;6.076;2024-01-11T09:46:50;-5.00;99.90
37594;DHT22;23441;50.856;6.076;2024-01-11T09:49:38;-4.90;99.90
37594;DHT22;23441;50.856;6.076;2024-01-11T09:52:26;-4.80;99.90
37594;DHT22;23441;50.856;6.076;2024-01-11T09:55:12;-4.70;99.90
37594;DHT22;23441;50.856;6.076;2024-01-11T09:57:59;-4.60;99.90
37594;DHT22;23441;50.856;6.076;2024-01-11T10:00:46;-4.60;99.90
37594;DHT22;23441;50.856;6.076;2024-01-11T10:03:34;-4.50;99.90
37594;DHT22;23441;50.856;6.076;2024-01-11T10:06:20;-4.40;99.90
37594;DHT22;23441;50.856;6.076;2024-01-11T10:09:08;-4.40;99.90
37594;DHT22;23441;50.856;6.076;2024-01-11T10:11:54;-4.40;99.90
37594;DHT22;23441;50.856;6.076;2024-01-11T10:14:41;-4.30;99.90
37594;DHT22;23441;50.856;6.076;2024-01-11T10:17:28;-4.20;99.90
37594;DHT22;23441;50.856;6.076;2024-01-11T10:20:14;-4.10;99.90
37594;DHT22;23441;50.856;6.076;2024-01-11T10:23:02;-4.10;99.90
37594;DHT22;23441;50.856;6.076;2024-01-11T10:25:48;-4.10;99.90
37594;DHT22;23441;50.856;6.076;2024-01-11T10:28:35;-3.90;99.90
37594;DHT22;23441;50.856;6.076;2024-01-11T10:31:23;-3.80;99.90
37594;DHT22;23441;50.856;6.076;2024-01-11T10:34:13;-3.70;99.90
37594;DHT22;23441;50.856;6.076;2024-01-11T10:36:59;-3.60;99.90
37594;DHT22;23441;50.856;6.076;2024-01-11T10:39:46;-3.60;99.90
37594;DHT22;23441;50.856;6.076;2024-01-11T10:42:33;-3.50;99.90
37594;DHT22;23441;50.856;6.076;2024-01-11T10:45:21;-3.40;99.90
37594;DHT22;23441;50.856;6.076;2024-01-11T10:50:56;-3.20;99.90
37594;DHT22;23441;50.856;6.076;2024-01-11T10:53:44;-3.20;99.90
37594;DHT22;23441;50.856;6.076;2024-01-11T10:56:31;-3.10;99.90
37594;DHT22;23441;50.856;6.076;2024-01-11T10:59:18;-3.10;99.90
37594;DHT22;23441;50.856;6.076;2024-01-11T11:02:06;-3.00;99.90
37594;DHT22;23441;50.856;6.076;2024-01-11T11:04:55;-2.90;99.90
37594;DHT22;23441;50.856;6.076;2024-01-11T11:07:42;-3.00;99.90
37594;DHT22;23441;50.856;6.076;2024-01-11T11:10:28;-2.90;99.90
37594;DHT22;23441;50.856;6.076;2024-01-11T11:13:17;-2.80;99.90
37594;DHT22;23441;50.856;6.076;2024-01-11T11:16:04;-2.80;99.90
37594;DHT22;23441;50.856;6.076;2024-01-11T11:18:53;-2.70;99.90
37594;DHT22;23441;50.856;6.076;2024-01-11T11:21:43;-2.70;99.90
37594;DHT22;23441;50.856;6.076;2024-01-11T11:24:30;-2.70;99.90
37594;DHT22;23441;50.856;6.076;2024-01-11T11:27:19;-2.60;99.90
37594;DHT22;23441;50.856;6.076;2024-01-11T11:30:05;-2.50;99.90
37594;DHT22;23441;50.856;6.076;2024-01-11T11:32:51;-2.40;99.90
37594;DHT22;23441;50.856;6.076;2024-01-11T11:35:37;-2.40;99.90
37594;DHT22;23441;50.856;6.076;2024-01-11T11:38:28;-2.40;99.90
37594;DHT22;23441;50.856;6.076;2024-01-11T11:41:17;-2.40;99.90
37594;DHT22;23441;50.856;6.076;2024-01-11T11:44:04;-2.30;99.90
37594;DHT22;23441;50.856;6.076;2024-01-11T11:46:51;-1.90;99.90
37594;DHT22;23441;50.856;6.076;2024-01-11T11:50:08;-1.60;99.90
37594;DHT22;23441;50.856;6.076;2024-01-11T11:52:55;-1.40;99.90
37594;DHT22;23441;50.856;6.076;2024-01-11T11:55:44;-1.30;99.90
37594;DHT22;23441;50.856;6.076;2024-01-11T11:58:32;-1.20;99.90
37594;DHT22;23441;50.856;6.076;2024-01-11T12:01:18;-1.10;99.90
37594;DHT22;23441;50.856;6.076;2024-01-11T12:04:04;-1.30;99.90
37594;DHT22;23441;50.856;6.076;2024-01-11T12:06:50;-1.40;99.90
37594;DHT22;23441;50.856;6.076;2024-01-11T12:09:36;-1.60;99.90
37594;DHT22;23441;50.856;6.076;2024-01-11T12:12:23;-1.70;99.90
37594;DHT22;23441;50.856;6.076;2024-01-11T12:15:09;-1.60;99.90
37594;DHT22;23441;50.856;6.076;2024-01-11T12:18:00;-1.50;99.90
37594;DHT22;23441;50.856;6.076;2024-01-11T12:20:46;-1.40;99.90
37594;DHT22;23441;50.856;6.076;2024-01-11T12:23:33;-1.40;99.90
37594;DHT22;23441;50.856;6.076;2024-01-11T12:26:20;-1.30;99.90
37594;DHT22;23441;50.856;6.076;2024-01-11T12:29:07;-1.30;99.90
37594;DHT22;23441;50.856;6.076;2024-01-11T12:31:56;-1.30;99.90
37594;DHT22;23441;50.856;6.076;2024-01-11T12:34:44;-1.30;99.90
37594;DHT22;23441;50.856;6.076;2024-01-11T12:37:30;-1.20;99.90
37594;DHT22;23441;50.856;6.076;2024-01-11T12:40:16;-1.10;99.90
37594;DHT22;23441;50.856;6.076;2024-01-11T12:43:03;-1.00;99.90
37594;DHT22;23441;50.856;6.076;2024-01-11T12:45:49;-0.80;99.90
37594;DHT22;23441;50.856;6.076;2024-01-11T12:48:36;-0.80;99.90
37594;DHT22;23441;50.856;6.076;2024-01-11T12:51:22;-0.70;99.90
37594;DHT22;23441;50.856;6.076;2024-01-11T12:54:14;-0.60;99.90
37594;DHT22;23441;50.856;6.076;2024-01-11T12:57:00;-0.40;99.90
37594;DHT22;23441;50.856;6.076;2024-01-11T12:59:48;-0.40;99.90
37594;DHT22;23441;50.856;6.076;2024-01-11T13:02:34;-0.20;99.90
37594;DHT22;23441;50.856;6.076;2024-01-11T13:05:20;-0.10;99.90
37594;DHT22;23441;50.856;6.076;2024-01-11T13:08:09;0.00;99.90
37594;DHT22;23441;50.856;6.076;2024-01-11T13:10:55;0.10;99.90
37594;DHT22;23441;50.856;6.076;2024-01-11T13:13:41;0.10;99.90
37594;DHT22;23441;50.856;6.076;2024-01-11T13:16:27;0.20;99.90
37594;DHT22;23441;50.856;6.076;2024-01-11T13:19:14;0.20;99.90
37594;DHT22;23441;50.856;6.076;2024-01-11T13:22:01;0.30;99.90
37594;DHT22;23441;50.856;6.076;2024-01-11T13:24:48;0.30;99.90
37594;DHT22;23441;50.856;6.076;2024-01-11T13:27:34;0.30;99.90
37594;DHT22;23441;50.856;6.076;2024-01-11T13:30:21;0.20;99.90
37594;DHT22;23441;50.856;6.076;2024-01-11T13:33:07;0.20;99.90
37594;DHT22;23441;50.856;6.076;2024-01-11T13:35:54;0.30;99.90
37594;DHT22;23441;50.856;6.076;2024-01-11T13:38:40;0.30;99.90
37594;DHT22;23441;50.856;6.076;2024-01-11T13:41:26;0.20;99.90
37594;DHT22;23441;50.856;6.076;2024-01-11T13:44:12;0.10;99.90
37594;DHT22;23441;50.856;6.076;2024-01-11T13:46:58;0.00;99.90
37594;DHT22;23441;50.856;6.076;2024-01-11T13:49:44;0.00;99.90
37594;DHT22;23441;50.856;6.076;2024-01-11T13:52:31;0.00;99.90
37594;DHT22;23441;50.856;6.076;2024-01-11T13:55:17;0.00;99.90
37594;DHT22;23441;50.856;6.076;2024-01-11T13:58:03;0.00;99.90
37594;DHT22;23441;50.856;6.076;2024-01-11T14:00:49;0.00;99.90
37594;DHT22;23441;50.856;6.076;2024-01-11T14:03:35;0.00;99.90
37594;DHT22;23441;50.856;6.076;2024-01-11T14:06:22;0.00;99.90
37594;DHT22;23441;50.856;6.076;2024-01-11T14:09:08;-0.10;99.90
37594;DHT22;23441;50.856;6.076;2024-01-11T14:11:55;-0.10;99.90
37594;DHT22;23441;50.856;6.076;2024-01-11T14:14:42;-0.10;99.90
37594;DHT22;23441;50.856;6.076;2024-01-11T14:17:28;-0.10;99.90
37594;DHT22;23441;50.856;6.076;2024-01-11T14:20:14;-0.10;99.90
37594;DHT22;23441;50.856;6.076;2024-01-11T14:23:00;-0.10;99.90
37594;DHT22;23441;50.856;6.076;2024-01-11T14:25:46;-0.10;99.90
37594;DHT22;23441;50.856;6.076;2024-01-11T14:28:33;-0.10;99.90
37594;DHT22;23441;50.856;6.076;2024-01-11T14:31:19;-0.10;99.90
37594;DHT22;23441;50.856;6.076;2024-01-11T14:34:05;-0.20;99.90
37594;DHT22;23441;50.856;6.076;2024-01-11T14:36:51;-0.20;99.90
37594;DHT22;23441;50.856;6.076;2024-01-11T14:39:38;-0.20;99.90
37594;DHT22;23441;50.856;6.076;2024-01-11T14:42:24;-0.20;99.90
37594;DHT22;23441;50.856;6.076;2024-01-11T14:45:09;-0.20;99.90
37594;DHT22;23441;50.856;6.076;2024-01-11T14:47:56;-0.20;99.90
37594;DHT22;23441;50.856;6.076;2024-01-11T14:50:41;-0.30;99.90
37594;DHT22;23441;50.856;6.076;2024-01-11T14:53:27;-0.30;99.90
37594;DHT22;23441;50.856;6.076;2024-01-11T14:56:13;-0.30;99.90
37594;DHT22;23441;50.856;6.076;2024-01-11T14:58:59;-0.40;99.90
37594;DHT22;23441;50.856;6.076;2024-01-11T15:01:45;-0.50;99.90
37594;DHT22;23441;50.856;6.076;2024-01-11T15:04:31;-0.50;99.90
37594;DHT22;23441;50.856;6.076;2024-01-11T15:07:17;-0.60;99.90
37594;DHT22;23441;50.856;6.076;2024-01-11T15:10:03;-0.60;99.90
37594;DHT22;23441;50.856;6.076;2024-01-11T15:12:49;-0.60;99.90
37594;DHT22;23441;50.856;6.076;2024-01-11T15:15:35;-0.60;99.90
37594;DHT22;23441;50.856;6.076;2024-01-11T15:18:21;-0.70;99.90
37594;DHT22;23441;50.856;6.076;2024-01-11T15:21:07;-0.70;99.90
37594;DHT22;23441;50.856;6.076;2024-01-11T15:23:54;-0.70;99.90
37594;DHT22;23441;50.856;6.076;2024-01-11T15:26:40;-0.80;99.90
37594;DHT22;23441;50.856;6.076;2024-01-11T15:29:26;-0.90;99.90
37594;DHT22;23441;50.856;6.076;2024-01-11T15:32:12;-1.00;99.90
37594;DHT22;23441;50.856;6.076;2024-01-11T15:34:58;-1.00;99.90
37594;DHT22;23441;50.856;6.076;2024-01-11T15:37:44;-1.00;99.90
37594;DHT22;23441;50.856;6.076;2024-01-11T15:40:30;-1.00;99.90
37594;DHT22;23441;50.856;6.076;2024-01-11T15:43:16;-1.10;99.90
37594;DHT22;23441;50.856;6.076;2024-01-11T15:46:02;-1.10;99.90
37594;DHT22;23441;50.856;6.076;2024-01-11T15:48:48;-1.20;99.90
37594;DHT22;23441;50.856;6.076;2024-01-11T15:51:34;-1.20;99.90
37594;DHT22;23441;50.856;6.076;2024-01-11T15:54:20;-1.30;99.90
37594;DHT22;23441;50.856;6.076;2024-01-11T15:57:06;-1.20;99.90
37594;DHT22;23441;50.856;6.076;2024-01-11T15:59:52;-1.30;99.90
37594;DHT22;23441;50.856;6.076;2024-01-11T16:02:38;-1.30;99.90
37594;DHT22;23441;50.856;6.076;2024-01-11T16:05:26;-1.30;99.90
37594;DHT22;23441;50.856;6.076;2024-01-11T16:08:12;-1.40;99.90
37594;DHT22;23441;50.856;6.076;2024-01-11T16:10:58;-1.40;99.90
37594;DHT22;23441;50.856;6.076;2024-01-11T16:13:44;-1.50;99.90
37594;DHT22;23441;50.856;6.076;2024-01-11T16:16:33;-1.50;99.90
37594;DHT22;23441;50.856;6.076;2024-01-11T16:19:19;-1.50;99.90
37594;DHT22;23441;50.856;6.076;2024-01-11T16:22:05;-1.60;99.90
37594;DHT22;23441;50.856;6.076;2024-01-11T16:24:51;-1.70;99.90
37594;DHT22;23441;50.856;6.076;2024-01-11T16:27:37;-1.70;99.90
37594;DHT22;23441;50.856;6.076;2024-01-11T16:30:23;-1.80;99.90
37594;DHT22;23441;50.856;6.076;2024-01-11T16:33:09;-1.80;99.90
37594;DHT22;23441;50.856;6.076;2024-01-11T16:35:55;-1.90;99.90
37594;DHT22;23441;50.856;6.076;2024-01-11T16:38:44;-1.90;99.90
37594;DHT22;23441;50.856;6.076;2024-01-11T16:41:30;-1.90;99.90
37594;DHT22;23441;50.856;6.076;2024-01-11T16:44:16;-1.90;99.90
37594;DHT22;23441;50.856;6.076;2024-01-11T16:47:02;-1.90;99.90
37594;DHT22;23441;50.856;6.076;2024-01-11T16:49:48;-2.00;99.90
37594;DHT22;23441;50.856;6.076;2024-01-11T16:52:34;-2.00;99.90
37594;DHT22;23441;50.856;6.076;2024-01-11T16:55:20;-2.00;99.90
37594;DHT22;23441;50.856;6.076;2024-01-11T16:58:08;-2.00;99.90
37594;DHT22;23441;50.856;6.076;2024-01-11T17:00:54;-2.00;99.90
37594;DHT22;23441;50.856;6.076;2024-01-11T17:03:40;-2.10;99.90
37594;DHT22;23441;50.856;6.076;2024-01-11T17:06:26;-2.00;99.90
37594;DHT22;23441;50.856;6.076;2024-01-11T17:09:12;-2.10;99.90
37594;DHT22;23441;50.856;6.076;2024-01-11T17:11:58;-2.20;99.90
37594;DHT22;23441;50.856;6.076;2024-01-11T17:14:44;-2.20;99.90
37594;DHT22;23441;50.856;6.076;2024-01-11T17:17:30;-2.20;99.90
37594;DHT22;23441;50.856;6.076;2024-01-11T17:20:16;-2.20;99.90
37594;DHT22;23441;50.856;6.076;2024-01-11T17:23:02;-2.20;99.90
37594;DHT22;23441;50.856;6.076;2024-01-11T17:25:48;-2.30;99.90
37594;DHT22;23441;50.856;6.076;2024-01-11T17:28:34;-2.30;99.90
37594;DHT22;23441;50.856;6.076;2024-01-11T17:31:20;-2.40;99.90
37594;DHT22;23441;50.856;6.076;2024-01-11T17:34:06;-2.50;99.90
37594;DHT22;23441;50.856;6.076;2024-01-11T17:36:53;-2.50;99.90